| time (UTC) | temp C | wind direction | speed KPH | gust KPH | rain 1hr cm | rain 24hr cm | rain mn cm | humidity % | barometer mb |
| 20260507181004 | 29 | 281 | 9.7 | 12.9 | 0.00 | 0.00 | 0.00 | 38 | 1013.6 |
| 20260507180504 | 30 | 178 | 6.4 | 11.3 | 0.00 | 0.00 | 0.00 | 40 | 1013.7 |
| 20260507180007 | 29 | 184 | 9.7 | 19.3 | 0.00 | 0.00 | 0.00 | 39 | 1013.7 |
| 20260507175503 | 28 | 151 | 4.8 | 11.3 | 0.00 | 0.00 | 0.00 | 40 | 1014.0 |
| 20260507175003 | 28 | 18 | 4.8 | 12.9 | 0.00 | 0.00 | 0.00 | 42 | 1014.0 |
| 20260507174503 | 28 | 86 | 8.0 | 16.1 | 0.00 | 0.00 | 0.00 | 41 | 1014.1 |
| 20260507174003 | 30 | 135 | 12.9 | 24.1 | 0.00 | 0.00 | 0.00 | 39 | 1014.2 |
| 20260507173504 | 30 | 175 | 4.8 | 19.3 | 0.00 | 0.00 | 0.00 | 39 | 1014.2 |
| 20260507173008 | 29 | 102 | 9.7 | 16.1 | 0.00 | 0.00 | 0.00 | 40 | 1014.3 |
| 20260507172504 | 29 | 113 | 1.6 | 12.9 | 0.00 | 0.00 | 0.00 | 40 | 1014.5 |
| 20260507172004 | 28 | 109 | 3.2 | 20.9 | 0.00 | 0.00 | 0.00 | 41 | 1014.6 |
| 20260507171504 | 28 | 125 | 8.0 | 19.3 | 0.00 | 0.00 | 0.00 | 41 | 1014.7 |
| 20260507171003 | 28 | 82 | 8.0 | 24.1 | 0.00 | 0.00 | 0.00 | 41 | 1014.7 |
| 20260507170503 | 28 | 152 | 8.0 | 14.5 | 0.00 | 0.00 | 0.00 | 42 | 1014.7 |
| 20260507170006 | 28 | 75 | 1.6 | 12.9 | 0.00 | 0.00 | 0.00 | 42 | 1014.8 |
| 20260507165504 | 28 | 180 | 4.8 | 19.3 | 0.00 | 0.00 | 0.00 | 41 | 1015.0 |
| 20260507165004 | 28 | 124 | 4.8 | 19.3 | 0.00 | 0.00 | 0.00 | 43 | 1015.2 |
| 20260507164504 | 28 | 124 | 9.7 | 19.3 | 0.00 | 0.00 | 0.00 | 43 | 1015.3 |
| 20260507164003 | 28 | 161 | 8.0 | 16.1 | 0.00 | 0.00 | 0.00 | 42 | 1015.3 |
| 20260507163504 | 29 | 82 | 3.2 | 12.9 | 0.00 | 0.00 | 0.00 | 41 | 1015.4 |
| 20260507163006 | 28 | 173 | 4.8 | 19.3 | 0.00 | 0.00 | 0.00 | 43 | 1015.5 |
| 20260507162504 | 28 | 93 | 14.5 | 24.1 | 0.00 | 0.00 | 0.00 | 43 | 1015.6 |
| 20260507162004 | 28 | 158 | 4.8 | 14.5 | 0.00 | 0.00 | 0.00 | 45 | 1015.7 |
| 20260507161504 | 27 | 120 | 4.8 | 14.5 | 0.00 | 0.00 | 0.00 | 45 | 1015.8 |
| 20260507161004 | 27 | 157 | 9.7 | 19.3 | 0.00 | 0.00 | 0.00 | 45 | 1015.8 |
| 20260507160504 | 27 | 143 | 8.0 | 19.3 | 0.00 | 0.00 | 0.00 | 47 | 1015.9 |
| 20260507160006 | 27 | 146 | 4.8 | 16.1 | 0.00 | 0.00 | 0.00 | 48 | 1015.9 |
| 20260507155503 | 27 | 142 | 9.7 | 22.5 | 0.00 | 0.00 | 0.00 | 48 | 1016.2 |
| 20260507155004 | 27 | 114 | 9.7 | 19.3 | 0.00 | 0.00 | 0.00 | 49 | 1016.2 |
| 20260507154504 | 27 | 148 | 4.8 | 11.3 | 0.00 | 0.00 | 0.00 | 48 | 1016.1 |
| 20260507154004 | 27 | 80 | 4.8 | 19.3 | 0.00 | 0.00 | 0.00 | 50 | 1016.2 |
| 20260507153504 | 27 | 133 | 4.8 | 14.5 | 0.00 | 0.00 | 0.00 | 49 | 1016.3 |
| 20260507153006 | 27 | 140 | 6.4 | 16.1 | 0.00 | 0.00 | 0.00 | 51 | 1016.3 |
| 20260507152504 | 26 | 190 | 4.8 | 19.3 | 0.00 | 0.00 | 0.00 | 52 | 1016.3 |
| 20260507152004 | 26 | 81 | 11.3 | 19.3 | 0.00 | 0.00 | 0.00 | 52 | 1016.4 |
| 20260507151504 | 27 | 120 | 4.8 | 11.3 | 0.00 | 0.00 | 0.00 | 52 | 1016.4 |
| 20260507151003 | 26 | 141 | 8.0 | 19.3 | 0.00 | 0.00 | 0.00 | 53 | 1016.5 |
| 20260507150504 | 26 | 139 | 8.0 | 19.3 | 0.00 | 0.00 | 0.00 | 55 | 1016.6 |
| 20260507150006 | 26 | 148 | 4.8 | 19.3 | 0.00 | 0.00 | 0.00 | 56 | 1016.6 |
| 20260507145504 | 26 | 109 | 8.0 | 19.3 | 0.00 | 0.00 | 0.00 | 55 | 1016.8 |
| 20260507145004 | 26 | 124 | 3.2 | 24.1 | 0.00 | 0.00 | 0.00 | 57 | 1016.8 |
| 20260507144504 | 26 | 150 | 8.0 | 16.1 | 0.00 | 0.00 | 0.00 | 57 | 1016.8 |
| 20260507144004 | 26 | 134 | 4.8 | 19.3 | 0.00 | 0.00 | 0.00 | 59 | 1016.8 |
| 20260507143504 | 25 | 145 | 12.9 | 22.5 | 0.00 | 0.00 | 0.00 | 59 | 1016.8 |
| 20260507143008 | 25 | 140 | 8.0 | 19.3 | 0.00 | 0.00 | 0.00 | 59 | 1016.9 |
| 20260507142504 | 25 | 155 | 11.3 | 19.3 | 0.00 | 0.00 | 0.00 | 59 | 1016.9 |
| 20260507142004 | 25 | 170 | 3.2 | 14.5 | 0.00 | 0.00 | 0.00 | 60 | 1017.0 |
| 20260507141504 | 25 | 140 | 4.8 | 16.1 | 0.00 | 0.00 | 0.00 | 61 | 1017.1 |
| 20260507141004 | 25 | 120 | 9.7 | 14.5 | 0.00 | 0.00 | 0.00 | 61 | 1017.1 |
| 20260507140503 | 25 | 140 | 9.7 | 14.5 | 0.00 | 0.00 | 0.00 | 62 | 1017.2 |
| 20260507140006 | 25 | 160 | 9.7 | 19.3 | 0.00 | 0.00 | 0.00 | 62 | 1017.2 |
| 20260507135504 | 25 | 133 | 9.7 | 14.5 | 0.00 | 0.00 | 0.00 | 63 | 1017.3 |
| 20260507135004 | 25 | 131 | 11.3 | 19.3 | 0.00 | 0.00 | 0.00 | 62 | 1017.3 |
| 20260507134503 | 25 | 89 | 8.0 | 19.3 | 0.00 | 0.00 | 0.00 | 61 | 1017.2 |
| 20260507134003 | 25 | 115 | 9.7 | 20.9 | 0.00 | 0.00 | 0.00 | 61 | 1017.3 |
| 20260507133503 | 25 | 95 | 4.8 | 14.5 | 0.00 | 0.00 | 0.00 | 63 | 1017.3 |
| 20260507133006 | 24 | 66 | 8.0 | 24.1 | 0.00 | 0.00 | 0.00 | 63 | 1017.3 |
| 20260507132504 | 24 | 87 | 8.0 | 19.3 | 0.00 | 0.00 | 0.00 | 64 | 1017.4 |
| 20260507132003 | 24 | 113 | 12.9 | 20.9 | 0.00 | 0.00 | 0.00 | 65 | 1017.3 |
| 20260507131504 | 24 | 141 | 9.7 | 16.1 | 0.00 | 0.00 | 0.00 | 65 | 1017.3 |
| 20260507131004 | 24 | 144 | 6.4 | 14.5 | 0.00 | 0.00 | 0.00 | 67 | 1017.3 |
| 20260507130503 | 24 | 141 | 4.8 | 16.1 | 0.00 | 0.00 | 0.00 | 67 | 1017.3 |
| 20260507130006 | 23 | 178 | 3.2 | 11.3 | 0.00 | 0.00 | 0.00 | 69 | 1017.3 |
| 20260507125504 | 23 | 163 | 3.2 | 11.3 | 0.00 | 0.00 | 0.00 | 68 | 1017.3 |
| 20260507125004 | 23 | 148 | 4.8 | 12.9 | 0.00 | 0.00 | 0.00 | 70 | 1017.4 |
| 20260507124503 | 23 | 142 | 6.4 | 14.5 | 0.00 | 0.00 | 0.00 | 69 | 1017.3 |
| 20260507124004 | 23 | 85 | 11.3 | 20.9 | 0.00 | 0.00 | 0.00 | 70 | 1017.3 |
| 20260507123504 | 23 | 89 | 4.8 | 16.1 | 0.00 | 0.00 | 0.00 | 72 | 1017.3 |
| 20260507123006 | 22 | 149 | 9.7 | 19.3 | 0.00 | 0.00 | 0.00 | 73 | 1017.3 |
| 20260507122504 | 22 | 163 | 4.8 | 11.3 | 0.00 | 0.00 | 0.00 | 74 | 1017.3 |
| 20260507122004 | 22 | 161 | 6.4 | 12.9 | 0.00 | 0.00 | 0.00 | 75 | 1017.2 |
| 20260507121504 | 22 | 128 | 8.0 | 11.3 | 0.00 | 0.00 | 0.00 | 76 | 1017.2 |
| 20260507121004 | 22 | 161 | 8.0 | 16.1 | 0.00 | 0.00 | 0.00 | 78 | 1017.1 |
| 20260507120503 | 22 | 135 | 4.8 | 11.3 | 0.00 | 0.00 | 0.00 | 78 | 1017.1 |
| 20260507120006 | 22 | 168 | 3.2 | 11.3 | 0.00 | 0.00 | 0.00 | 79 | 1017.1 |
| 20260507115505 | 22 | 96 | 9.7 | 14.5 | 0.00 | 0.00 | 0.00 | 81 | 1017.1 |
| 20260507115004 | 21 | 143 | 8.0 | 14.5 | 0.00 | 0.00 | 0.00 | 81 | 1017.1 |
| 20260507114504 | 21 | 156 | 4.8 | 9.7 | 0.00 | 0.00 | 0.00 | 81 | 1017.0 |
| 20260507114004 | 21 | 110 | 3.2 | 11.3 | 0.00 | 0.00 | 0.00 | 83 | 1017.0 |
| 20260507113504 | 21 | 96 | 3.2 | 12.9 | 0.00 | 0.00 | 0.00 | 83 | 1016.9 |
| 20260507113006 | 21 | 121 | 3.2 | 12.9 | 0.00 | 0.00 | 0.00 | 84 | 1016.9 |
| 20260507112504 | 21 | 72 | 4.8 | 14.5 | 0.00 | 0.00 | 0.00 | 84 | 1016.8 |
| 20260507112004 | 21 | 81 | 6.4 | 14.5 | 0.00 | 0.00 | 0.00 | 84 | 1016.9 |
| 20260507111506 | 21 | 61 | 3.2 | 8.0 | 0.00 | 0.00 | 0.00 | 83 | 1016.8 |
| 20260507111004 | 21 | 41 | 0.0 | 3.2 | 0.00 | 0.00 | 0.00 | 83 | 1016.9 |
| 20260507110504 | 20 | 42 | 3.2 | 4.8 | 0.00 | 0.00 | 0.00 | 82 | 1016.9 |
| 20260507110006 | 20 | 348 | 3.2 | 4.8 | 0.00 | 0.00 | 0.00 | 82 | 1016.9 |
| 20260507105504 | 20 | 348 | 4.8 | 9.7 | 0.00 | 0.00 | 0.00 | 82 | 1016.8 |
| 20260507105004 | 20 | 73 | 1.6 | 8.0 | 0.00 | 0.00 | 0.00 | 85 | 1016.7 |
| 20260507104504 | 20 | 81 | 1.6 | 3.2 | 0.00 | 0.00 | 0.00 | 86 | 1016.6 |
| 20260507104003 | 20 | 81 | 3.2 | 9.7 | 0.00 | 0.00 | 0.00 | 86 | 1016.6 |
| 20260507103503 | 20 | 84 | 0.0 | 4.8 | 0.00 | 0.00 | 0.00 | 86 | 1016.5 |
| 20260507103006 | 20 | 84 | 3.2 | 4.8 | 0.00 | 0.00 | 0.00 | 86 | 1016.4 |
| 20260507102503 | 20 | 84 | 4.8 | 9.7 | 0.00 | 0.00 | 0.00 | 85 | 1016.4 |
| 20260507102003 | 20 | 109 | 1.6 | 4.8 | 0.00 | 0.00 | 0.00 | 84 | 1016.3 |
| 20260507101504 | 20 | 113 | 0.0 | 3.2 | 0.00 | 0.00 | 0.00 | 83 | 1016.4 |
| 20260507101004 | 20 | 112 | 0.0 | 3.2 | 0.00 | 0.00 | 0.00 | 84 | 1016.3 |
| 20260507100504 | 20 | 113 | 1.6 | 9.7 | 0.00 | 0.00 | 0.00 | 83 | 1016.3 |
| 20260507100006 | 20 | 99 | 3.2 | 9.7 | 0.00 | 0.00 | 0.00 | 82 | 1016.4 |
| 20260507095503 | 20 | 32 | 1.6 | 3.2 | 0.00 | 0.00 | 0.00 | 81 | 1016.3 |
| 20260507095004 | 20 | 32 | 0.0 | 0.0 | 0.00 | 0.00 | 0.00 | 81 | 1016.3 |
| 20260507094504 | 20 | 32 | 0.0 | 0.0 | 0.00 | 0.00 | 0.00 | 81 | 1016.2 |
| 20260507094004 | 20 | 32 | 0.0 | 1.6 | 0.00 | 0.00 | 0.00 | 80 | 1016.2 |
| 20260507093504 | 20 | 32 | 1.6 | 4.8 | 0.00 | 0.00 | 0.00 | 80 | 1016.2 |
| 20260507093006 | 20 | 32 | 1.6 | 4.8 | 0.00 | 0.00 | 0.00 | 80 | 1016.1 |
| 20260507092504 | 20 | 32 | 0.0 | 0.0 | 0.00 | 0.00 | 0.00 | 80 | 1016.0 |
| 20260507092004 | 20 | 32 | 0.0 | 1.6 | 0.00 | 0.00 | 0.00 | 79 | 1015.9 |
| 20260507091504 | 20 | 32 | 1.6 | 3.2 | 0.00 | 0.00 | 0.00 | 79 | 1015.8 |
| 20260507091004 | 20 | 32 | 0.0 | 4.8 | 0.00 | 0.00 | 0.00 | 79 | 1015.7 |
| 20260507090503 | 20 | 31 | 3.2 | 4.8 | 0.00 | 0.00 | 0.00 | 79 | 1015.7 |
| 20260507090006 | 20 | 38 | 1.6 | 3.2 | 0.00 | 0.00 | 0.00 | 80 | 1015.6 |
| 20260507085504 | 20 | 38 | 0.0 | 0.0 | 0.00 | 0.00 | 0.00 | 80 | 1015.6 |
| 20260507085003 | 20 | 38 | 0.0 | 3.2 | 0.00 | 0.00 | 0.00 | 81 | 1015.5 |
| 20260507084504 | 20 | 38 | 0.0 | 4.8 | 0.00 | 0.00 | 0.00 | 80 | 1015.6 |
| 20260507084004 | 20 | 38 | 3.2 | 4.8 | 0.00 | 0.00 | 0.00 | 80 | 1015.6 |
| 20260507083504 | 20 | 38 | 3.2 | 4.8 | 0.00 | 0.00 | 0.00 | 80 | 1015.5 |
| 20260507083006 | 21 | 38 | 0.0 | 4.8 | 0.00 | 0.00 | 0.00 | 81 | 1015.5 |
| 20260507082503 | 21 | 38 | 1.6 | 4.8 | 0.00 | 0.00 | 0.00 | 81 | 1015.4 |
| 20260507082004 | 21 | 38 | 1.6 | 3.2 | 0.00 | 0.00 | 0.00 | 82 | 1015.4 |
| 20260507081504 | 21 | 38 | 0.0 | 4.8 | 0.00 | 0.00 | 0.00 | 81 | 1015.4 |
| 20260507081004 | 21 | 38 | 0.0 | 4.8 | 0.00 | 0.00 | 0.00 | 82 | 1015.4 |
| 20260507080503 | 21 | 38 | 1.6 | 4.8 | 0.00 | 0.00 | 0.00 | 82 | 1015.4 |
| 20260507080006 | 21 | 38 | 3.2 | 4.8 | 0.00 | 0.00 | 0.00 | 82 | 1015.4 |
| 20260507075504 | 21 | 38 | 0.0 | 3.2 | 0.00 | 0.00 | 0.00 | 82 | 1015.4 |
| 20260507075003 | 21 | 38 | 0.0 | 1.6 | 0.00 | 0.00 | 0.00 | 82 | 1015.4 |
| 20260507074503 | 21 | 38 | 0.0 | 1.6 | 0.00 | 0.00 | 0.00 | 81 | 1015.4 |
| 20260507074003 | 21 | 38 | 0.0 | 3.2 | 0.00 | 0.00 | 0.00 | 81 | 1015.4 |
| 20260507073503 | 21 | 38 | 0.0 | 4.8 | 0.00 | 0.00 | 0.00 | 81 | 1015.5 |
| 20260507073006 | 21 | 38 | 1.6 | 4.8 | 0.00 | 0.00 | 0.00 | 81 | 1015.5 |
| 20260507072504 | 21 | 38 | 1.6 | 4.8 | 0.00 | 0.00 | 0.00 | 80 | 1015.5 |
| 20260507072003 | 21 | 38 | 0.0 | 1.6 | 0.00 | 0.00 | 0.00 | 81 | 1015.6 |
| 20260507071504 | 21 | 38 | 0.0 | 4.8 | 0.00 | 0.00 | 0.00 | 81 | 1015.6 |
| 20260507071004 | 21 | 38 | 0.0 | 4.8 | 0.00 | 0.00 | 0.00 | 81 | 1015.6 |
| 20260507070504 | 21 | 42 | 1.6 | 4.8 | 0.00 | 0.00 | 0.00 | 81 | 1015.6 |
| 20260507070010 | 21 | 42 | 1.6 | 4.8 | 0.00 | 0.00 | 0.00 | 81 | 1015.6 |
| 20260507065504 | 21 | 42 | 0.0 | 4.8 | 0.00 | 0.00 | 0.00 | 82 | 1015.5 |
| 20260507065004 | 21 | 49 | 0.0 | 0.0 | 0.00 | 0.00 | 0.00 | 83 | 1015.6 |
| 20260507064504 | 21 | 49 | 1.6 | 4.8 | 0.00 | 0.00 | 0.00 | 83 | 1015.7 |
| 20260507064004 | 21 | 49 | 0.0 | 0.0 | 0.00 | 0.00 | 0.00 | 83 | 1015.8 |
| 20260507063504 | 21 | 49 | 0.0 | 4.8 | 0.00 | 0.00 | 0.00 | 83 | 1015.9 |
| 20260507063006 | 21 | 50 | 0.0 | 4.8 | 0.00 | 0.00 | 0.00 | 84 | 1016.0 |
| 20260507062503 | 21 | 49 | 0.0 | 4.8 | 0.00 | 0.00 | 0.00 | 84 | 1016.0 |
| 20260507062003 | 21 | 49 | 0.0 | 4.8 | 0.00 | 0.00 | 0.00 | 85 | 1016.1 |
| 20260507061503 | 21 | 50 | 3.2 | 9.7 | 0.00 | 0.00 | 0.00 | 84 | 1016.2 |
| 20260507061003 | 21 | 124 | 3.2 | 12.9 | 0.00 | 0.00 | 0.00 | 85 | 1016.2 |
| 20260507060504 | 21 | 92 | 3.2 | 12.9 | 0.00 | 0.00 | 0.00 | 84 | 1016.2 |
| 20260507060006 | 21 | 76 | 4.8 | 8.0 | 0.00 | 0.00 | 0.00 | 84 | 1016.2 |
| 20260507055503 | 21 | 125 | 3.2 | 8.0 | 0.00 | 0.00 | 0.00 | 85 | 1016.2 |
| 20260507055004 | 21 | 76 | 3.2 | 14.5 | 0.00 | 0.00 | 0.00 | 85 | 1016.2 |
| 20260507054504 | 21 | 82 | 8.0 | 16.1 | 0.00 | 0.00 | 0.00 | 84 | 1016.4 |
| 20260507054003 | 21 | 46 | 1.6 | 4.8 | 0.00 | 0.00 | 0.00 | 84 | 1016.5 |
| 20260507053504 | 21 | 108 | 4.8 | 14.5 | 0.00 | 0.00 | 0.00 | 85 | 1016.6 |
| 20260507053006 | 22 | 99 | 6.4 | 16.1 | 0.00 | 0.00 | 0.00 | 85 | 1016.6 |
| 20260507052504 | 22 | 134 | 8.0 | 12.9 | 0.00 | 0.00 | 0.00 | 86 | 1016.5 |
| 20260507052004 | 22 | 70 | 4.8 | 8.0 | 0.00 | 0.00 | 0.00 | 86 | 1016.5 |
| 20260507051503 | 22 | 96 | 4.8 | 12.9 | 0.00 | 0.00 | 0.00 | 86 | 1016.6 |
| 20260507051003 | 22 | 133 | 4.8 | 9.7 | 0.00 | 0.00 | 0.00 | 86 | 1016.6 |
| 20260507050503 | 22 | 124 | 1.6 | 12.9 | 0.00 | 0.00 | 0.00 | 86 | 1016.7 |
| 20260507050006 | 22 | 142 | 6.4 | 12.9 | 0.00 | 0.00 | 0.00 | 86 | 1016.8 |
| 20260507045504 | 22 | 148 | 1.6 | 12.9 | 0.00 | 0.00 | 0.00 | 86 | 1016.9 |
| 20260507045003 | 22 | 105 | 3.2 | 12.9 | 0.00 | 0.00 | 0.00 | 86 | 1016.9 |
| 20260507044503 | 22 | 132 | 4.8 | 12.9 | 0.00 | 0.00 | 0.00 | 86 | 1017.0 |
| 20260507044004 | 22 | 125 | 4.8 | 9.7 | 0.00 | 0.00 | 0.00 | 86 | 1017.0 |
| 20260507043503 | 22 | 117 | 4.8 | 11.3 | 0.00 | 0.00 | 0.00 | 86 | 1017.1 |
| 20260507043006 | 22 | 89 | 3.2 | 8.0 | 0.00 | 0.00 | 0.00 | 86 | 1017.2 |
| 20260507042504 | 22 | 161 | 3.2 | 9.7 | 0.00 | 0.00 | 0.00 | 86 | 1017.2 |
| 20260507042003 | 22 | 106 | 1.6 | 4.8 | 0.00 | 0.00 | 0.00 | 87 | 1017.2 |
| 20260507041504 | 22 | 106 | 8.0 | 14.5 | 0.00 | 0.00 | 0.00 | 87 | 1017.1 |
| 20260507041004 | 22 | 144 | 4.8 | 14.5 | 0.00 | 0.00 | 0.00 | 87 | 1017.1 |
| 20260507040504 | 22 | 123 | 8.0 | 20.9 | 0.00 | 0.00 | 0.00 | 87 | 1017.2 |
| 20260507040006 | 22 | 139 | 4.8 | 16.1 | 0.00 | 0.00 | 0.00 | 87 | 1017.2 |
| 20260507035503 | 22 | 145 | 6.4 | 19.3 | 0.00 | 0.00 | 0.00 | 87 | 1017.3 |
| 20260507035004 | 22 | 152 | 9.7 | 16.1 | 0.00 | 0.00 | 0.00 | 87 | 1017.2 |
| 20260507034503 | 22 | 129 | 8.0 | 16.1 | 0.00 | 0.00 | 0.00 | 88 | 1017.3 |
| 20260507034003 | 22 | 147 | 8.0 | 16.1 | 0.00 | 0.00 | 0.00 | 88 | 1017.3 |
| 20260507033503 | 22 | 132 | 4.8 | 16.1 | 0.00 | 0.00 | 0.00 | 89 | 1017.3 |
| 20260507033006 | 22 | 91 | 6.4 | 12.9 | 0.00 | 0.00 | 0.00 | 89 | 1017.3 |
| 20260507032504 | 22 | 135 | 8.0 | 19.3 | 0.00 | 0.00 | 0.00 | 89 | 1017.3 |
| 20260507032004 | 22 | 119 | 6.4 | 16.1 | 0.00 | 0.00 | 0.00 | 89 | 1017.3 |
| 20260507031504 | 22 | 120 | 3.2 | 11.3 | 0.00 | 0.00 | 0.00 | 89 | 1017.3 |
| 20260507031003 | 22 | 105 | 4.8 | 12.9 | 0.00 | 0.00 | 0.00 | 89 | 1017.3 |
| 20260507030504 | 22 | 123 | 4.8 | 14.5 | 0.00 | 0.00 | 0.00 | 89 | 1017.3 |
| 20260507030006 | 22 | 91 | 3.2 | 14.5 | 0.00 | 0.00 | 0.00 | 88 | 1017.3 |
| 20260507025503 | 22 | 144 | 4.8 | 9.7 | 0.00 | 0.00 | 0.00 | 88 | 1017.3 |
| 20260507025003 | 22 | 95 | 3.2 | 9.7 | 0.00 | 0.00 | 0.00 | 88 | 1017.3 |
| 20260507024504 | 22 | 142 | 4.8 | 16.1 | 0.00 | 0.00 | 0.00 | 88 | 1017.3 |
| 20260507024004 | 22 | 131 | 3.2 | 12.9 | 0.00 | 0.00 | 0.00 | 88 | 1017.3 |
| 20260507023504 | 22 | 137 | 0.0 | 12.9 | 0.00 | 0.00 | 0.00 | 88 | 1017.2 |
| 20260507023006 | 22 | 130 | 4.8 | 16.1 | 0.00 | 0.00 | 0.00 | 88 | 1017.2 |
| 20260507022504 | 22 | 93 | 3.2 | 19.3 | 0.00 | 0.00 | 0.00 | 87 | 1017.1 |
| 20260507022004 | 22 | 153 | 8.0 | 14.5 | 0.00 | 0.00 | 0.00 | 87 | 1017.0 |
| 20260507021504 | 22 | 138 | 6.4 | 16.1 | 0.00 | 0.00 | 0.00 | 87 | 1017.1 |
| 20260507021004 | 22 | 128 | 6.4 | 16.1 | 0.00 | 0.00 | 0.00 | 87 | 1017.1 |
| 20260507020503 | 22 | 137 | 3.2 | 19.3 | 0.00 | 0.00 | 0.00 | 87 | 1017.0 |
| 20260507020006 | 22 | 117 | 4.8 | 19.3 | 0.00 | 0.00 | 0.00 | 86 | 1017.0 |
| 20260507015503 | 23 | 134 | 4.8 | 16.1 | 0.00 | 0.00 | 0.00 | 86 | 1016.8 |
| 20260507015004 | 23 | 118 | 8.0 | 22.5 | 0.00 | 0.00 | 0.00 | 85 | 1016.8 |
| 20260507014503 | 23 | 120 | 8.0 | 19.3 | 0.00 | 0.00 | 0.00 | 85 | 1016.8 |
| 20260507014004 | 23 | 147 | 8.0 | 16.1 | 0.00 | 0.00 | 0.00 | 85 | 1016.7 |
| 20260507013504 | 23 | 160 | 4.8 | 12.9 | 0.00 | 0.00 | 0.00 | 85 | 1016.6 |
| 20260507013006 | 23 | 144 | 9.7 | 19.3 | 0.00 | 0.00 | 0.00 | 84 | 1016.6 |
| 20260507012504 | 23 | 146 | 4.8 | 16.1 | 0.00 | 0.00 | 0.00 | 84 | 1016.5 |
| 20260507012004 | 23 | 150 | 4.8 | 19.3 | 0.00 | 0.00 | 0.00 | 83 | 1016.5 |
| 20260507011503 | 23 | 136 | 9.7 | 16.1 | 0.00 | 0.00 | 0.00 | 83 | 1016.5 |
| 20260507011004 | 23 | 149 | 4.8 | 11.3 | 0.00 | 0.00 | 0.00 | 82 | 1016.4 |
| 20260507010504 | 23 | 110 | 1.6 | 11.3 | 0.00 | 0.00 | 0.00 | 82 | 1016.3 |
| 20260507010006 | 23 | 110 | 6.4 | 14.5 | 0.00 | 0.00 | 0.00 | 82 | 1016.2 |
| 20260507005504 | 23 | 148 | 8.0 | 19.3 | 0.00 | 0.00 | 0.00 | 81 | 1016.2 |
| 20260507005003 | 24 | 136 | 6.4 | 14.5 | 0.00 | 0.00 | 0.00 | 80 | 1016.0 |
| 20260507004504 | 24 | 141 | 4.8 | 12.9 | 0.00 | 0.00 | 0.00 | 79 | 1016.0 |
| 20260507004004 | 24 | 130 | 4.8 | 16.1 | 0.00 | 0.00 | 0.00 | 78 | 1015.9 |
| 20260507003504 | 24 | 160 | 3.2 | 9.7 | 0.00 | 0.00 | 0.00 | 78 | 1015.9 |
| 20260507003006 | 24 | 151 | 4.8 | 19.3 | 0.00 | 0.00 | 0.00 | 78 | 1015.8 |
| 20260507002504 | 24 | 128 | 4.8 | 14.5 | 0.00 | 0.00 | 0.00 | 77 | 1015.9 |
| 20260507002003 | 24 | 106 | 6.4 | 12.9 | 0.00 | 0.00 | 0.00 | 76 | 1015.8 |
| 20260507001503 | 24 | 137 | 9.7 | 19.3 | 0.00 | 0.00 | 0.00 | 76 | 1015.7 |
| 20260507001004 | 24 | 148 | 6.4 | 12.9 | 0.00 | 0.00 | 0.00 | 75 | 1015.5 |
| 20260507000504 | 25 | 146 | 8.0 | 16.1 | 0.00 | 0.00 | 0.00 | 75 | 1015.5 |
| 20260507000006 | 25 | 156 | 8.0 | 16.1 | 0.00 | 0.00 | 0.00 | 75 | 1015.4 |
| 20260506235504 | 25 | 166 | 8.0 | 11.3 | 0.00 | 0.00 | 0.00 | 74 | 1015.4 |
| 20260506235004 | 25 | 113 | 9.7 | 19.3 | 0.00 | 0.00 | 0.00 | 73 | 1015.3 |
| 20260506234504 | 25 | 120 | 8.0 | 14.5 | 0.00 | 0.00 | 0.00 | 73 | 1015.2 |
| 20260506234004 | 25 | 170 | 3.2 | 19.3 | 0.00 | 0.00 | 0.00 | 73 | 1015.3 |
| 20260506233504 | 25 | 87 | 3.2 | 19.3 | 0.00 | 0.00 | 0.00 | 71 | 1015.2 |
| 20260506233006 | 26 | 91 | 8.0 | 20.9 | 0.00 | 0.00 | 0.00 | 68 | 1015.2 |
| 20260506232503 | 26 | 168 | 1.6 | 14.5 | 0.00 | 0.00 | 0.00 | 67 | 1015.0 |
| 20260506232004 | 26 | 125 | 6.4 | 12.9 | 0.00 | 0.00 | 0.00 | 65 | 1015.0 |
| 20260506231503 | 26 | 156 | 8.0 | 16.1 | 0.00 | 0.00 | 0.00 | 64 | 1014.8 |
| 20260506231004 | 26 | 137 | 4.8 | 12.9 | 0.00 | 0.00 | 0.00 | 62 | 1014.7 |
| 20260506230504 | 26 | 128 | 4.8 | 11.3 | 0.00 | 0.00 | 0.00 | 61 | 1014.7 |
| 20260506230006 | 26 | 136 | 8.0 | 16.1 | 0.00 | 0.00 | 0.00 | 59 | 1014.7 |
| 20260506225503 | 26 | 110 | 9.7 | 16.1 | 0.00 | 0.00 | 0.00 | 58 | 1014.5 |
| 20260506225003 | 26 | 105 | 3.2 | 11.3 | 0.00 | 0.00 | 0.00 | 58 | 1014.5 |
| 20260506224504 | 26 | 49 | 9.7 | 20.9 | 0.00 | 0.00 | 0.00 | 58 | 1014.4 |
| 20260506224004 | 27 | 64 | 8.0 | 19.3 | 0.00 | 0.00 | 0.00 | 57 | 1014.3 |
| 20260506223504 | 27 | 84 | 3.2 | 12.9 | 0.00 | 0.00 | 0.00 | 56 | 1014.3 |
| 20260506223006 | 27 | 154 | 6.4 | 16.1 | 0.00 | 0.00 | 0.00 | 56 | 1014.2 |
| 20260506222503 | 27 | 116 | 4.8 | 14.5 | 0.00 | 0.00 | 0.00 | 56 | 1014.1 |
| 20260506222004 | 27 | 55 | 4.8 | 12.9 | 0.00 | 0.00 | 0.00 | 56 | 1014.1 |
| 20260506221504 | 27 | 80 | 9.7 | 19.3 | 0.00 | 0.00 | 0.00 | 55 | 1014.1 |
| 20260506221003 | 27 | 93 | 4.8 | 12.9 | 0.00 | 0.00 | 0.00 | 55 | 1014.1 |
| 20260506220503 | 27 | 136 | 8.0 | 14.5 | 0.00 | 0.00 | 0.00 | 54 | 1014.0 |
| 20260506220005 | 27 | 144 | 8.0 | 19.3 | 0.00 | 0.00 | 0.00 | 54 | 1014.0 |
| 20260506215504 | 27 | 43 | 6.4 | 19.3 | 0.00 | 0.00 | 0.00 | 54 | 1014.0 |
| 20260506215004 | 27 | 113 | 4.8 | 16.1 | 0.00 | 0.00 | 0.00 | 53 | 1014.0 |
| 20260506214503 | 27 | 173 | 9.7 | 16.1 | 0.00 | 0.00 | 0.00 | 53 | 1014.0 |
| 20260506214003 | 27 | 154 | 8.0 | 14.5 | 0.00 | 0.00 | 0.00 | 53 | 1013.9 |
| 20260506213504 | 27 | 148 | 6.4 | 14.5 | 0.00 | 0.00 | 0.00 | 52 | 1013.7 |
| 20260506213006 | 28 | 186 | 3.2 | 16.1 | 0.00 | 0.00 | 0.00 | 51 | 1013.6 |
| 20260506212503 | 28 | 103 | 3.2 | 14.5 | 0.00 | 0.00 | 0.00 | 51 | 1013.7 |
| 20260506212003 | 28 | 166 | 4.8 | 12.9 | 0.00 | 0.00 | 0.00 | 50 | 1013.6 |
| 20260506211504 | 28 | 158 | 3.2 | 9.7 | 0.00 | 0.00 | 0.00 | 50 | 1013.5 |
| 20260506211004 | 28 | 47 | 3.2 | 14.5 | 0.00 | 0.00 | 0.00 | 50 | 1013.4 |
| 20260506210504 | 28 | 125 | 11.3 | 24.1 | 0.00 | 0.00 | 0.00 | 49 | 1013.4 |
| 20260506210006 | 28 | 130 | 8.0 | 20.9 | 0.00 | 0.00 | 0.00 | 48 | 1013.3 |
| 20260506205504 | 28 | 140 | 4.8 | 12.9 | 0.00 | 0.00 | 0.00 | 47 | 1013.2 |
| 20260506205003 | 28 | 131 | 3.2 | 12.9 | 0.00 | 0.00 | 0.00 | 47 | 1013.2 |
| 20260506204504 | 28 | 129 | 4.8 | 19.3 | 0.00 | 0.00 | 0.00 | 47 | 1013.1 |
| 20260506204004 | 28 | 111 | 8.0 | 19.3 | 0.00 | 0.00 | 0.00 | 48 | 1013.2 |
| 20260506203503 | 28 | 110 | 8.0 | 19.3 | 0.00 | 0.00 | 0.00 | 48 | 1013.2 |
| 20260506203006 | 28 | 150 | 9.7 | 20.9 | 0.00 | 0.00 | 0.00 | 48 | 1013.3 |
| 20260506202504 | 28 | 135 | 9.7 | 20.9 | 0.00 | 0.00 | 0.00 | 48 | 1013.3 |
| 20260506202004 | 28 | 140 | 4.8 | 20.9 | 0.00 | 0.00 | 0.00 | 47 | 1013.3 |
| 20260506201504 | 28 | 136 | 8.0 | 20.9 | 0.00 | 0.00 | 0.00 | 47 | 1013.4 |
| 20260506201004 | 28 | 150 | 6.4 | 14.5 | 0.00 | 0.00 | 0.00 | 46 | 1013.4 |
| 20260506200504 | 28 | 113 | 4.8 | 12.9 | 0.00 | 0.00 | 0.00 | 46 | 1013.4 |
| 20260506200006 | 28 | 164 | 11.3 | 19.3 | 0.00 | 0.00 | 0.00 | 47 | 1013.5 |
| 20260506195504 | 28 | 174 | 6.4 | 22.5 | 0.00 | 0.00 | 0.00 | 46 | 1013.7 |
| 20260506195004 | 28 | 145 | 8.0 | 22.5 | 0.00 | 0.00 | 0.00 | 47 | 1013.8 |
| 20260506194504 | 28 | 147 | 3.2 | 14.5 | 0.00 | 0.00 | 0.00 | 47 | 1013.7 |
| 20260506194003 | 28 | 134 | 9.7 | 20.9 | 0.00 | 0.00 | 0.00 | 48 | 1013.8 |
| 20260506193504 | 28 | 163 | 6.4 | 16.1 | 0.00 | 0.00 | 0.00 | 48 | 1013.8 |
| 20260506193006 | 28 | 127 | 8.0 | 32.2 | 0.00 | 0.00 | 0.00 | 47 | 1013.8 |
| 20260506192504 | 28 | 89 | 9.7 | 19.3 | 0.00 | 0.00 | 0.00 | 46 | 1014.0 |
| 20260506192004 | 29 | 107 | 4.8 | 14.5 | 0.00 | 0.00 | 0.00 | 44 | 1014.0 |
| 20260506191504 | 29 | 158 | 8.0 | 14.5 | 0.00 | 0.00 | 0.00 | 43 | 1014.0 |
| 20260506191003 | 28 | 143 | 8.0 | 12.9 | 0.00 | 0.00 | 0.00 | 44 | 1014.0 |
| 20260506190503 | 28 | 120 | 6.4 | 12.9 | 0.00 | 0.00 | 0.00 | 46 | 1014.1 |
| 20260506190006 | 28 | 91 | 9.7 | 22.5 | 0.00 | 0.00 | 0.00 | 47 | 1014.3 |
| 20260506185504 | 28 | 114 | 11.3 | 22.5 | 0.00 | 0.00 | 0.00 | 46 | 1014.5 |
| 20260506185004 | 28 | 128 | 9.7 | 24.1 | 0.00 | 0.00 | 0.00 | 46 | 1014.5 |
| 20260506184504 | 28 | 99 | 8.0 | 12.9 | 0.00 | 0.00 | 0.00 | 46 | 1014.5 |
| 20260506184003 | 27 | 110 | 1.6 | 12.9 | 0.00 | 0.00 | 0.00 | 48 | 1014.6 |
| 20260506183504 | 28 | 104 | 9.7 | 24.1 | 0.00 | 0.00 | 0.00 | 46 | 1014.7 |
| 20260506183006 | 28 | 79 | 8.0 | 24.1 | 0.00 | 0.00 | 0.00 | 46 | 1014.7 |
| 20260506182504 | 28 | 118 | 9.7 | 20.9 | 0.00 | 0.00 | 0.00 | 45 | 1014.8 |
| 20260506182003 | 28 | 145 | 9.7 | 19.3 | 0.00 | 0.00 | 0.00 | 44 | 1014.8 |
| 20260506181504 | 28 | 176 | 9.7 | 20.9 | 0.00 | 0.00 | 0.00 | 44 | 1014.9 |